sensor_id;sensor_type;location;lat;lon;timestamp;pressure;altitude;pressure_sealevel;temperature;humidity
71857;BME280;63344;46.980;28.882;2023-03-25T00:01:13;100256.69;;;9.04;78.74
71857;BME280;63344;46.980;28.882;2023-03-25T00:03:42;100261.88;;;9.07;78.39
71857;BME280;63344;46.980;28.882;2023-03-25T00:06:10;100264.59;;;9.05;78.55
71857;BME280;63344;46.980;28.882;2023-03-25T00:08:38;100251.59;;;8.99;78.47
71857;BME280;63344;46.980;28.882;2023-03-25T00:11:05;100264.78;;;9.01;78.21
71857;BME280;63344;46.980;28.882;2023-03-25T00:13:34;100254.28;;;8.97;78.37
71857;BME280;63344;46.980;28.882;2023-03-25T00:16:02;100254.22;;;8.99;78.43
71857;BME280;63344;46.980;28.882;2023-03-25T00:18:30;100257.91;;;8.95;78.60
71857;BME280;63344;46.980;28.882;2023-03-25T00:21:02;100250.06;;;8.92;78.66
71857;BME280;63344;46.980;28.882;2023-03-25T00:23:30;100245.16;;;8.83;79.04
71857;BME280;63344;46.980;28.882;2023-03-25T00:25:58;100243.50;;;8.78;78.97
71857;BME280;63344;46.980;28.882;2023-03-25T00:28:28;100243.63;;;8.75;79.19
71857;BME280;63344;46.980;28.882;2023-03-25T00:30:58;100243.69;;;8.74;79.18
71857;BME280;63344;46.980;28.882;2023-03-25T00:33:27;100240.22;;;8.72;79.26
71857;BME280;63344;46.980;28.882;2023-03-25T00:35:55;100229.06;;;8.64;79.32
71857;BME280;63344;46.980;28.882;2023-03-25T00:38:26;100230.09;;;8.60;79.46
71857;BME280;63344;46.980;28.882;2023-03-25T00:41:18;100238.94;;;8.58;79.95
71857;BME280;63344;46.980;28.882;2023-03-25T00:43:56;100232.94;;;8.55;79.86
71857;BME280;63344;46.980;28.882;2023-03-25T00:46:27;100236.38;;;8.57;79.88
71857;BME280;63344;46.980;28.882;2023-03-25T00:48:56;100231.09;;;8.57;79.87
71857;BME280;63344;46.980;28.882;2023-03-25T00:51:26;100226.84;;;8.53;79.93
71857;BME280;63344;46.980;28.882;2023-03-25T00:53:55;100225.09;;;8.52;80.11
71857;BME280;63344;46.980;28.882;2023-03-25T00:56:23;100217.47;;;8.43;80.17
71857;BME280;63344;46.980;28.882;2023-03-25T00:58:50;100223.66;;;8.43;80.39
71857;BME280;63344;46.980;28.882;2023-03-25T01:01:21;100214.16;;;8.36;80.38
71857;BME280;63344;46.980;28.882;2023-03-25T01:03:50;100208.19;;;8.31;80.71
71857;BME280;63344;46.980;28.882;2023-03-25T01:06:30;100216.94;;;8.33;80.61
71857;BME280;63344;46.980;28.882;2023-03-25T01:08:59;100214.53;;;8.27;80.44
71857;BME280;63344;46.980;28.882;2023-03-25T01:11:28;100218.03;;;8.27;80.66
71857;BME280;63344;46.980;28.882;2023-03-25T01:13:56;100212.03;;;8.22;80.56
71857;BME280;63344;46.980;28.882;2023-03-25T01:16:27;100214.66;;;8.22;80.65
71857;BME280;63344;46.980;28.882;2023-03-25T01:18:55;100211.22;;;8.20;80.90
71857;BME280;63344;46.980;28.882;2023-03-25T01:21:22;100194.72;;;8.13;81.18
71857;BME280;63344;46.980;28.882;2023-03-25T01:23:49;100198.34;;;8.11;81.48
71857;BME280;63344;46.980;28.882;2023-03-25T01:26:17;100190.50;;;8.08;81.07
71857;BME280;63344;46.980;28.882;2023-03-25T01:28:45;100193.19;;;8.06;81.15
71857;BME280;63344;46.980;28.882;2023-03-25T01:31:13;100176.69;;;8.00;81.44
71857;BME280;63344;46.980;28.882;2023-03-25T01:33:41;100181.22;;;7.96;81.62
71857;BME280;63344;46.980;28.882;2023-03-25T01:36:09;100170.81;;;7.91;81.83
71857;BME280;63344;46.980;28.882;2023-03-25T01:38:40;100172.63;;;7.89;81.54
71857;BME280;63344;46.980;28.882;2023-03-25T01:41:09;100177.13;;;7.87;81.94
71857;BME280;63344;46.980;28.882;2023-03-25T01:43:36;100180.66;;;7.86;82.18
71857;BME280;63344;46.980;28.882;2023-03-25T01:46:03;100176.53;;;7.79;81.88
71857;BME280;63344;46.980;28.882;2023-03-25T01:48:31;100179.91;;;7.83;82.24
71857;BME280;63344;46.980;28.882;2023-03-25T01:51:17;100170.31;;;7.80;82.18
71857;BME280;63344;46.980;28.882;2023-03-25T01:53:46;100169.50;;;7.78;82.09
71857;BME280;63344;46.980;28.882;2023-03-25T01:56:18;100175.72;;;7.77;82.25
71857;BME280;63344;46.980;28.882;2023-03-25T01:58:46;100166.22;;;7.71;81.85
71857;BME280;63344;46.980;28.882;2023-03-25T02:01:16;100168.00;;;7.71;82.28
71857;BME280;63344;46.980;28.882;2023-03-25T02:03:50;100161.06;;;7.67;82.32
71857;BME280;63344;46.980;28.882;2023-03-25T02:06:23;100156.78;;;7.63;82.30
71857;BME280;63344;46.980;28.882;2023-03-25T02:08:59;100144.69;;;7.57;82.50
71857;BME280;63344;46.980;28.882;2023-03-25T02:11:29;100145.63;;;7.54;82.56
71857;BME280;63344;46.980;28.882;2023-03-25T02:13:59;100141.38;;;7.50;82.79
71857;BME280;63344;46.980;28.882;2023-03-25T02:16:39;100149.25;;;7.52;82.42
71857;BME280;63344;46.980;28.882;2023-03-25T02:19:33;100148.41;;;7.51;82.55
71857;BME280;63344;46.980;28.882;2023-03-25T02:25:17;100130.84;;;7.49;82.39
71857;BME280;63344;46.980;28.882;2023-03-25T02:33:52;100113.38;;;7.45;82.43
71857;BME280;63344;46.980;28.882;2023-03-25T02:39:31;100110.88;;;7.40;82.60
71857;BME280;63344;46.980;28.882;2023-03-25T02:42:14;100114.47;;;7.39;82.70
71857;BME280;63344;46.980;28.882;2023-03-25T02:47:37;100110.28;;;7.32;82.98
71857;BME280;63344;46.980;28.882;2023-03-25T02:50:15;100117.38;;;7.31;82.91
71857;BME280;63344;46.980;28.882;2023-03-25T02:52:48;100114.69;;;7.33;83.01
71857;BME280;63344;46.980;28.882;2023-03-25T02:55:18;100113.91;;;7.29;83.24
71857;BME280;63344;46.980;28.882;2023-03-25T02:57:49;100119.13;;;7.31;83.15
71857;BME280;63344;46.980;28.882;2023-03-25T03:00:25;100124.56;;;7.26;83.18
71857;BME280;63344;46.980;28.882;2023-03-25T03:02:59;100124.53;;;7.28;83.28
71857;BME280;63344;46.980;28.882;2023-03-25T03:11:04;100113.91;;;7.29;83.17
71857;BME280;63344;46.980;28.882;2023-03-25T03:24:44;100117.63;;;7.24;82.75
71857;BME280;63344;46.980;28.882;2023-03-25T03:27:20;100115.13;;;7.19;82.85
71857;BME280;63344;46.980;28.882;2023-03-25T03:30:06;100110.06;;;7.13;82.73
71857;BME280;63344;46.980;28.882;2023-03-25T03:33:16;100112.75;;;7.11;82.74
71857;BME280;63344;46.980;28.882;2023-03-25T03:35:48;100115.59;;;7.05;82.43
71857;BME280;63344;46.980;28.882;2023-03-25T03:38:22;100110.44;;;7.01;82.46
71857;BME280;63344;46.980;28.882;2023-03-25T03:40:59;100112.13;;;7.03;82.70
71857;BME280;63344;46.980;28.882;2023-03-25T03:46:30;100113.75;;;7.07;83.06
71857;BME280;63344;46.980;28.882;2023-03-25T03:49:02;100104.06;;;7.08;83.13
71857;BME280;63344;46.980;28.882;2023-03-25T03:51:34;100110.09;;;7.11;82.88
71857;BME280;63344;46.980;28.882;2023-03-25T03:54:16;100104.81;;;7.11;82.87
71857;BME280;63344;46.980;28.882;2023-03-25T03:56:51;100112.75;;;7.11;82.82
71857;BME280;63344;46.980;28.882;2023-03-25T03:59:46;100098.72;;;7.09;82.50
71857;BME280;63344;46.980;28.882;2023-03-25T04:02:26;100102.88;;;7.16;82.82
71857;BME280;63344;46.980;28.882;2023-03-25T04:04:55;100100.31;;;7.15;82.26
71857;BME280;63344;46.980;28.882;2023-03-25T04:07:40;100104.69;;;7.14;82.21
71857;BME280;63344;46.980;28.882;2023-03-25T04:10:17;100090.72;;;7.11;82.45
71857;BME280;63344;46.980;28.882;2023-03-25T04:12:50;100095.91;;;7.14;82.46
71857;BME280;63344;46.980;28.882;2023-03-25T04:15:19;100093.25;;;7.15;82.42
71857;BME280;63344;46.980;28.882;2023-03-25T04:17:46;100094.13;;;7.14;82.37
71857;BME280;63344;46.980;28.882;2023-03-25T04:20:21;100088.97;;;7.11;82.42
71857;BME280;63344;46.980;28.882;2023-03-25T04:22:51;100094.94;;;7.16;82.35
71857;BME280;63344;46.980;28.882;2023-03-25T04:25:20;100099.16;;;7.22;82.23
71857;BME280;63344;46.980;28.882;2023-03-25T04:27:51;100093.84;;;7.24;81.91
71857;BME280;63344;46.980;28.882;2023-03-25T04:30:19;100091.75;;;7.33;82.06
71857;BME280;63344;46.980;28.882;2023-03-25T04:32:47;100089.81;;;7.38;81.82
71857;BME280;63344;46.980;28.882;2023-03-25T04:35:15;100101.69;;;7.52;81.38
71857;BME280;63344;46.980;28.882;2023-03-25T04:37:45;100094.47;;;7.57;80.95
71857;BME280;63344;46.980;28.882;2023-03-25T04:40:12;100096.91;;;7.63;80.46
71857;BME280;63344;46.980;28.882;2023-03-25T04:42:42;100089.78;;;7.65;80.27
71857;BME280;63344;46.980;28.882;2023-03-25T04:45:11;100089.69;;;7.67;80.21
71857;BME280;63344;46.980;28.882;2023-03-25T04:47:40;100087.81;;;7.70;80.17
71857;BME280;63344;46.980;28.882;2023-03-25T04:50:27;100082.44;;;7.73;80.43
71857;BME280;63344;46.980;28.882;2023-03-25T04:52:55;100087.44;;;7.81;80.07
71857;BME280;63344;46.980;28.882;2023-03-25T04:55:29;100089.06;;;7.85;80.04
71857;BME280;63344;46.980;28.882;2023-03-25T04:57:56;100092.28;;;7.93;80.05
71857;BME280;63344;46.980;28.882;2023-03-25T05:00:24;100099.66;;;8.09;79.66
71857;BME280;63344;46.980;28.882;2023-03-25T05:02:55;100094.72;;;8.23;79.83
71857;BME280;63344;46.980;28.882;2023-03-25T05:05:24;100086.97;;;8.41;79.30
71857;BME280;63344;46.980;28.882;2023-03-25T05:07:53;100071.34;;;8.58;78.38
71857;BME280;63344;46.980;28.882;2023-03-25T05:10:24;100065.13;;;8.81;77.59
71857;BME280;63344;46.980;28.882;2023-03-25T05:12:59;100073.00;;;9.05;76.81
71857;BME280;63344;46.980;28.882;2023-03-25T05:15:31;100073.94;;;9.24;76.06
71857;BME280;63344;46.980;28.882;2023-03-25T05:18:01;100064.63;;;9.36;75.73
71857;BME280;63344;46.980;28.882;2023-03-25T05:20:29;100063.09;;;9.51;75.14
71857;BME280;63344;46.980;28.882;2023-03-25T05:22:58;100067.72;;;9.66;74.71
71857;BME280;63344;46.980;28.882;2023-03-25T05:25:26;100064.66;;;9.75;74.64
71857;BME280;63344;46.980;28.882;2023-03-25T05:27:56;100070.03;;;9.94;73.72
71857;BME280;63344;46.980;28.882;2023-03-25T05:30:34;100065.13;;;10.04;72.99
71857;BME280;63344;46.980;28.882;2023-03-25T05:33:05;100068.16;;;10.15;73.11
71857;BME280;63344;46.980;28.882;2023-03-25T05:35:33;100071.88;;;10.32;72.55
71857;BME280;63344;46.980;28.882;2023-03-25T05:38:00;100058.16;;;10.41;71.99
71857;BME280;63344;46.980;28.882;2023-03-25T05:40:29;100070.78;;;10.55;70.71
71857;BME280;63344;46.980;28.882;2023-03-25T05:43:16;100057.94;;;10.65;71.10
71857;BME280;63344;46.980;28.882;2023-03-25T05:45:52;100060.06;;;10.75;70.06
71857;BME280;63344;46.980;28.882;2023-03-25T05:48:19;100067.59;;;10.85;69.26
71857;BME280;63344;46.980;28.882;2023-03-25T05:50:49;100061.13;;;10.90;69.14
71857;BME280;63344;46.980;28.882;2023-03-25T05:53:17;100073.22;;;10.96;68.59
71857;BME280;63344;46.980;28.882;2023-03-25T05:55:48;100077.31;;;11.03;68.28
71857;BME280;63344;46.980;28.882;2023-03-25T05:58:18;100068.09;;;11.10;67.82
71857;BME280;63344;46.980;28.882;2023-03-25T06:00:46;100069.56;;;11.16;68.20
71857;BME280;63344;46.980;28.882;2023-03-25T06:03:17;100073.34;;;11.29;67.75
71857;BME280;63344;46.980;28.882;2023-03-25T06:06:16;100065.38;;;11.47;66.59
71857;BME280;63344;46.980;28.882;2023-03-25T06:09:09;100065.75;;;11.56;65.34
71857;BME280;63344;46.980;28.882;2023-03-25T06:11:49;100063.69;;;11.62;65.42
71857;BME280;63344;46.980;28.882;2023-03-25T06:14:22;100061.16;;;11.76;65.21
71857;BME280;63344;46.980;28.882;2023-03-25T06:16:59;100058.09;;;11.84;64.63
71857;BME280;63344;46.980;28.882;2023-03-25T06:19:44;100061.28;;;12.08;63.84
71857;BME280;63344;46.980;28.882;2023-03-25T06:22:17;100059.19;;;12.30;64.05
71857;BME280;63344;46.980;28.882;2023-03-25T06:24:51;100062.09;;;12.58;63.15
71857;BME280;63344;46.980;28.882;2023-03-25T06:27:22;100049.13;;;12.83;62.42
71857;BME280;63344;46.980;28.882;2023-03-25T06:30:00;100061.34;;;13.18;61.34
71857;BME280;63344;46.980;28.882;2023-03-25T06:32:48;100054.22;;;13.48;60.12
71857;BME280;63344;46.980;28.882;2023-03-25T06:35:18;100046.91;;;13.66;58.92
71857;BME280;63344;46.980;28.882;2023-03-25T06:37:51;100061.50;;;13.89;57.31
71857;BME280;63344;46.980;28.882;2023-03-25T06:40:19;100051.31;;;13.96;57.88
71857;BME280;63344;46.980;28.882;2023-03-25T06:42:48;100048.75;;;14.09;56.96
71857;BME280;63344;46.980;28.882;2023-03-25T06:45:20;100039.75;;;14.24;57.26
71857;BME280;63344;46.980;28.882;2023-03-25T06:47:59;100042.19;;;14.42;55.80
71857;BME280;63344;46.980;28.882;2023-03-25T06:50:31;100052.22;;;14.52;54.90
71857;BME280;63344;46.980;28.882;2023-03-25T06:52:59;100045.91;;;14.53;54.74
71857;BME280;63344;46.980;28.882;2023-03-25T06:55:26;100052.41;;;14.64;54.88
71857;BME280;63344;46.980;28.882;2023-03-25T06:57:55;100044.84;;;14.70;54.35
71857;BME280;63344;46.980;28.882;2023-03-25T07:00:25;100036.94;;;14.69;54.29
71857;BME280;63344;46.980;28.882;2023-03-25T07:02:56;100043.19;;;14.82;53.38
71857;BME280;63344;46.980;28.882;2023-03-25T07:05:24;100038.34;;;14.74;53.49
71857;BME280;63344;46.980;28.882;2023-03-25T07:07:52;100052.25;;;14.80;53.26
71857;BME280;63344;46.980;28.882;2023-03-25T07:10:21;100050.72;;;14.76;53.08
71857;BME280;63344;46.980;28.882;2023-03-25T07:13:01;100053.63;;;14.72;53.85
71857;BME280;63344;46.980;28.882;2023-03-25T07:15:31;100062.81;;;14.68;53.10
71857;BME280;63344;46.980;28.882;2023-03-25T07:17:59;100048.31;;;14.58;53.29
71857;BME280;63344;46.980;28.882;2023-03-25T07:20:26;100050.31;;;14.54;54.08
71857;BME280;63344;46.980;28.882;2023-03-25T07:22:55;100048.13;;;14.47;53.84
71857;BME280;63344;46.980;28.882;2023-03-25T07:25:23;100050.97;;;14.44;53.94
71857;BME280;63344;46.980;28.882;2023-03-25T07:27:51;100047.00;;;14.37;54.17
71857;BME280;63344;46.980;28.882;2023-03-25T07:30:28;100049.44;;;14.40;54.03
71857;BME280;63344;46.980;28.882;2023-03-25T07:33:08;100039.66;;;14.40;54.37
71857;BME280;63344;46.980;28.882;2023-03-25T07:35:44;100035.91;;;14.57;54.21
71857;BME280;63344;46.980;28.882;2023-03-25T07:38:16;100032.91;;;14.76;53.68
71857;BME280;63344;46.980;28.882;2023-03-25T07:40:43;100026.66;;;14.90;53.93
71857;BME280;63344;46.980;28.882;2023-03-25T07:43:18;100022.50;;;15.11;51.93
71857;BME280;63344;46.980;28.882;2023-03-25T07:45:45;100006.94;;;15.31;51.54
71857;BME280;63344;46.980;28.882;2023-03-25T07:48:13;100021.63;;;15.38;51.79
71857;BME280;63344;46.980;28.882;2023-03-25T07:50:43;100014.34;;;15.53;51.90
71857;BME280;63344;46.980;28.882;2023-03-25T07:53:11;100009.53;;;15.71;50.69
71857;BME280;63344;46.980;28.882;2023-03-25T07:55:38;100002.56;;;15.81;51.17
71857;BME280;63344;46.980;28.882;2023-03-25T07:58:06;100000.41;;;15.99;50.17
71857;BME280;63344;46.980;28.882;2023-03-25T08:00:34;100007.66;;;16.23;48.78
71857;BME280;63344;46.980;28.882;2023-03-25T08:03:40;99988.00;;;16.35;48.34
71857;BME280;63344;46.980;28.882;2023-03-25T08:06:23;99973.19;;;16.42;47.90
71857;BME280;63344;46.980;28.882;2023-03-25T08:08:53;99974.84;;;16.56;48.56
71857;BME280;63344;46.980;28.882;2023-03-25T08:11:22;99968.47;;;16.70;47.34
71857;BME280;63344;46.980;28.882;2023-03-25T08:13:51;99956.91;;;16.81;47.72
71857;BME280;63344;46.980;28.882;2023-03-25T08:16:19;99964.69;;;16.97;46.35
71857;BME280;63344;46.980;28.882;2023-03-25T08:18:48;99964.63;;;17.09;46.02
71857;BME280;63344;46.980;28.882;2023-03-25T08:21:29;99962.94;;;17.20;45.53
71857;BME280;63344;46.980;28.882;2023-03-25T08:24:04;99955.63;;;17.33;45.06
71857;BME280;63344;46.980;28.882;2023-03-25T08:26:34;99959.31;;;17.43;45.00
71857;BME280;63344;46.980;28.882;2023-03-25T08:29:05;99967.34;;;18.45;42.95
71857;BME280;63344;46.980;28.882;2023-03-25T08:32:01;99962.34;;;19.99;41.11
71857;BME280;63344;46.980;28.882;2023-03-25T08:34:29;99961.06;;;21.31;39.17
71857;BME280;63344;46.980;28.882;2023-03-25T08:37:00;99948.16;;;22.37;36.48
71857;BME280;63344;46.980;28.882;2023-03-25T08:39:27;99953.81;;;23.16;35.01
71857;BME280;63344;46.980;28.882;2023-03-25T08:42:02;99953.19;;;23.48;33.70
71857;BME280;63344;46.980;28.882;2023-03-25T08:44:31;99941.28;;;23.93;33.09
71857;BME280;63344;46.980;28.882;2023-03-25T08:46:58;99950.28;;;24.02;31.91
71857;BME280;63344;46.980;28.882;2023-03-25T08:49:33;99927.66;;;24.28;31.36
71857;BME280;63344;46.980;28.882;2023-03-25T08:52:00;99929.63;;;24.60;31.32
71857;BME280;63344;46.980;28.882;2023-03-25T08:54:28;99917.25;;;24.90;30.49
71857;BME280;63344;46.980;28.882;2023-03-25T08:56:55;99943.25;;;24.84;30.79
71857;BME280;63344;46.980;28.882;2023-03-25T08:59:23;99923.69;;;25.47;30.10
71857;BME280;63344;46.980;28.882;2023-03-25T09:01:51;99918.97;;;25.80;29.01
71857;BME280;63344;46.980;28.882;2023-03-25T09:04:24;99923.16;;;26.07;29.18
71857;BME280;63344;46.980;28.882;2023-03-25T09:06:52;99926.19;;;25.64;28.77
71857;BME280;63344;46.980;28.882;2023-03-25T09:09:39;99946.78;;;25.10;29.35
71857;BME280;63344;46.980;28.882;2023-03-25T09:12:07;99928.34;;;24.30;30.15
71857;BME280;63344;46.980;28.882;2023-03-25T09:14:36;99944.06;;;23.49;31.15
71857;BME280;63344;46.980;28.882;2023-03-25T09:17:05;99928.97;;;22.84;32.31
71857;BME280;63344;46.980;28.882;2023-03-25T09:19:33;99925.50;;;22.74;33.19
71857;BME280;63344;46.980;28.882;2023-03-25T09:22:01;99922.34;;;23.15;32.31
71857;BME280;63344;46.980;28.882;2023-03-25T09:24:28;99928.06;;;23.12;31.60
71857;BME280;63344;46.980;28.882;2023-03-25T09:27:01;99932.69;;;23.19;31.89
71857;BME280;63344;46.980;28.882;2023-03-25T09:29:48;99914.31;;;24.42;30.50
71857;BME280;63344;46.980;28.882;2023-03-25T09:32:28;99908.03;;;26.05;28.51
71857;BME280;63344;46.980;28.882;2023-03-25T09:34:58;99903.09;;;26.86;27.34
71857;BME280;63344;46.980;28.882;2023-03-25T09:37:39;99893.31;;;27.14;26.53
71857;BME280;63344;46.980;28.882;2023-03-25T09:40:15;99909.22;;;27.26;25.33
71857;BME280;63344;46.980;28.882;2023-03-25T09:42:53;99891.72;;;26.59;26.73
71857;BME280;63344;46.980;28.882;2023-03-25T09:45:39;99884.50;;;26.89;26.18
71857;BME280;63344;46.980;28.882;2023-03-25T09:51:12;99876.78;;;27.46;26.55
71857;BME280;63344;46.980;28.882;2023-03-25T09:56:15;99855.22;;;28.32;24.54
71857;BME280;63344;46.980;28.882;2023-03-25T09:58:49;99852.72;;;28.52;24.59
71857;BME280;63344;46.980;28.882;2023-03-25T10:10:00;99801.44;;;29.87;22.56
71857;BME280;63344;46.980;28.882;2023-03-25T10:21:40;99816.47;;;29.56;22.70
71857;BME280;63344;46.980;28.882;2023-03-25T10:24:20;99774.69;;;28.71;23.95
71857;BME280;63344;46.980;28.882;2023-03-25T10:29:54;99772.06;;;28.84;23.90
71857;BME280;63344;46.980;28.882;2023-03-25T10:32:37;99754.91;;;28.47;24.36
71857;BME280;63344;46.980;28.882;2023-03-25T10:35:19;99774.78;;;28.13;24.16
71857;BME280;63344;46.980;28.882;2023-03-25T10:37:52;99749.34;;;27.76;25.09
71857;BME280;63344;46.980;28.882;2023-03-25T10:40:40;99763.28;;;27.15;25.16
71857;BME280;63344;46.980;28.882;2023-03-25T10:43:33;99765.22;;;26.38;26.10
71857;BME280;63344;46.980;28.882;2023-03-25T10:46:24;99764.06;;;24.99;27.62
71857;BME280;63344;46.980;28.882;2023-03-25T10:48:56;99763.13;;;24.27;28.60
71857;BME280;63344;46.980;28.882;2023-03-25T10:51:34;99758.03;;;23.48;29.12
71857;BME280;63344;46.980;28.882;2023-03-25T10:54:04;99765.25;;;22.97;30.06
71857;BME280;63344;46.980;28.882;2023-03-25T10:56:45;99768.31;;;22.50;30.65
71857;BME280;63344;46.980;28.882;2023-03-25T11:01:52;99774.03;;;21.93;31.41
71857;BME280;63344;46.980;28.882;2023-03-25T11:04:26;99775.06;;;21.92;31.51
71857;BME280;63344;46.980;28.882;2023-03-25T11:06:58;99758.34;;;21.78;31.93
71857;BME280;63344;46.980;28.882;2023-03-25T11:09:47;99756.78;;;21.58;31.97
71857;BME280;63344;46.980;28.882;2023-03-25T11:12:43;99743.22;;;21.40;32.07
71857;BME280;63344;46.980;28.882;2023-03-25T11:15:35;99722.19;;;21.43;32.23
71857;BME280;63344;46.980;28.882;2023-03-25T11:18:35;99709.16;;;21.29;31.87
71857;BME280;63344;46.980;28.882;2023-03-25T11:21:16;99725.16;;;21.13;32.02
71857;BME280;63344;46.980;28.882;2023-03-25T11:23:47;99714.69;;;21.00;32.73
71857;BME280;63344;46.980;28.882;2023-03-25T11:26:21;99701.50;;;20.97;32.73
71857;BME280;63344;46.980;28.882;2023-03-25T11:28:55;99692.53;;;20.96;32.77
71857;BME280;63344;46.980;28.882;2023-03-25T11:31:33;99678.00;;;21.07;31.85
71857;BME280;63344;46.980;28.882;2023-03-25T11:36:51;99696.59;;;21.38;31.46
71857;BME280;63344;46.980;28.882;2023-03-25T11:39:38;99687.28;;;21.68;31.67
71857;BME280;63344;46.980;28.882;2023-03-25T11:44:50;99675.28;;;23.11;29.63
71857;BME280;63344;46.980;28.882;2023-03-25T11:47:25;99678.81;;;23.03;29.06
71857;BME280;63344;46.980;28.882;2023-03-25T11:49:53;99692.94;;;22.89;29.20
71857;BME280;63344;46.980;28.882;2023-03-25T11:52:26;99682.72;;;22.75;29.19
71857;BME280;63344;46.980;28.882;2023-03-25T11:55:01;99665.72;;;22.38;29.36
71857;BME280;63344;46.980;28.882;2023-03-25T11:57:37;99673.38;;;21.99;29.67
71857;BME280;63344;46.980;28.882;2023-03-25T12:00:24;99681.41;;;21.91;30.51
71857;BME280;63344;46.980;28.882;2023-03-25T12:03:04;99692.63;;;21.96;29.90
71857;BME280;63344;46.980;28.882;2023-03-25T12:05:32;99664.41;;;22.42;29.86
71857;BME280;63344;46.980;28.882;2023-03-25T12:08:08;99666.69;;;22.90;28.94
71857;BME280;63344;46.980;28.882;2023-03-25T12:22:23;99664.97;;;21.84;29.79
71857;BME280;63344;46.980;28.882;2023-03-25T12:25:16;99668.72;;;22.27;29.65
71857;BME280;63344;46.980;28.882;2023-03-25T12:33:21;99666.25;;;21.98;29.84
71857;BME280;63344;46.980;28.882;2023-03-25T12:39:17;99632.25;;;22.65;29.16
71857;BME280;63344;46.980;28.882;2023-03-25T12:44:55;99635.47;;;23.03;28.05
71857;BME280;63344;46.980;28.882;2023-03-25T12:47:42;99636.53;;;23.19;27.80
71857;BME280;63344;46.980;28.882;2023-03-25T12:50:36;99637.69;;;22.74;28.33
71857;BME280;63344;46.980;28.882;2023-03-25T12:59:02;99630.44;;;23.17;28.41
71857;BME280;63344;46.980;28.882;2023-03-25T13:01:44;99623.81;;;23.19;27.84
71857;BME280;63344;46.980;28.882;2023-03-25T13:07:39;99615.25;;;23.65;27.66
71857;BME280;63344;46.980;28.882;2023-03-25T13:13:05;99604.47;;;23.06;27.67
71857;BME280;63344;46.980;28.882;2023-03-25T13:15:43;99610.59;;;22.65;28.52
71857;BME280;63344;46.980;28.882;2023-03-25T13:18:29;99624.09;;;22.57;28.81
71857;BME280;63344;46.980;28.882;2023-03-25T13:21:09;99597.16;;;22.56;28.89
71857;BME280;63344;46.980;28.882;2023-03-25T13:23:42;99600.88;;;22.89;28.92
71857;BME280;63344;46.980;28.882;2023-03-25T13:26:20;99589.78;;;23.17;28.29
71857;BME280;63344;46.980;28.882;2023-03-25T13:28:56;99597.94;;;23.58;27.76
71857;BME280;63344;46.980;28.882;2023-03-25T13:31:40;99582.19;;;23.94;27.14
71857;BME280;63344;46.980;28.882;2023-03-25T13:34:39;99585.38;;;24.14;27.20
71857;BME280;63344;46.980;28.882;2023-03-25T13:37:32;99574.94;;;23.95;27.41
71857;BME280;63344;46.980;28.882;2023-03-25T13:43:53;99567.28;;;23.57;27.56
71857;BME280;63344;46.980;28.882;2023-03-25T13:46:17;99563.06;;;23.55;28.01
71857;BME280;63344;46.980;28.882;2023-03-25T13:49:05;99564.06;;;23.62;28.10
71857;BME280;63344;46.980;28.882;2023-03-25T13:51:33;99548.47;;;23.15;28.33
71857;BME280;63344;46.980;28.882;2023-03-25T13:54:07;99553.47;;;22.93;28.46
71857;BME280;63344;46.980;28.882;2023-03-25T13:57:13;99534.81;;;22.82;28.98
71857;BME280;63344;46.980;28.882;2023-03-25T14:02:35;99545.81;;;22.80;29.19
71857;BME280;63344;46.980;28.882;2023-03-25T14:06:27;99546.88;;;22.37;29.38
71857;BME280;63344;46.980;28.882;2023-03-25T14:11:22;99531.88;;;21.46;31.90
71857;BME280;63344;46.980;28.882;2023-03-25T14:13:58;99544.53;;;21.27;32.78
71857;BME280;63344;46.980;28.882;2023-03-25T14:16:32;99542.69;;;21.10;33.32
71857;BME280;63344;46.980;28.882;2023-03-25T14:19:20;99533.25;;;20.96;33.72
71857;BME280;63344;46.980;28.882;2023-03-25T14:21:50;99533.50;;;20.85;34.55
71857;BME280;63344;46.980;28.882;2023-03-25T14:24:28;99527.75;;;20.70;34.99
71857;BME280;63344;46.980;28.882;2023-03-25T14:27:17;99529.34;;;20.63;35.37
71857;BME280;63344;46.980;28.882;2023-03-25T14:29:53;99528.25;;;20.56;35.31
71857;BME280;63344;46.980;28.882;2023-03-25T14:38:20;99553.63;;;20.35;36.37
71857;BME280;63344;46.980;28.882;2023-03-25T14:41:08;99554.66;;;20.24;35.66
71857;BME280;63344;46.980;28.882;2023-03-25T14:43:51;99535.53;;;20.18;36.12
71857;BME280;63344;46.980;28.882;2023-03-25T14:46:21;99534.69;;;20.17;36.47
71857;BME280;63344;46.980;28.882;2023-03-25T14:57:13;99548.97;;;19.80;38.18
71857;BME280;63344;46.980;28.882;2023-03-25T14:59:49;99545.31;;;19.72;38.27
71857;BME280;63344;46.980;28.882;2023-03-25T15:02:23;99555.50;;;19.68;38.47
71857;BME280;63344;46.980;28.882;2023-03-25T15:05:13;99546.47;;;19.59;38.62
71857;BME280;63344;46.980;28.882;2023-03-25T15:07:49;99550.56;;;19.54;39.17
71857;BME280;63344;46.980;28.882;2023-03-25T15:10:33;99555.13;;;19.43;38.82
71857;BME280;63344;46.980;28.882;2023-03-25T15:13:26;99555.25;;;19.32;39.30
71857;BME280;63344;46.980;28.882;2023-03-25T15:15:59;99551.28;;;19.17;39.36
71857;BME280;63344;46.980;28.882;2023-03-25T15:26:36;99541.97;;;18.70;40.33
71857;BME280;63344;46.980;28.882;2023-03-25T15:38:46;99568.41;;;18.15;41.77
71857;BME280;63344;46.980;28.882;2023-03-25T15:55:04;99571.44;;;17.38;43.58
71857;BME280;63344;46.980;28.882;2023-03-25T15:57:53;99579.53;;;17.26;43.85
71857;BME280;63344;46.980;28.882;2023-03-25T16:00:26;99584.91;;;17.15;44.28
71857;BME280;63344;46.980;28.882;2023-03-25T16:03:06;99587.50;;;17.05;44.20
71857;BME280;63344;46.980;28.882;2023-03-25T16:05:46;99581.72;;;16.89;44.58